Airfield :
LOGIN :

Register | Disclaimer

   EN    FR    IT 

 










Legend :    VFR   Marginal VFR   IFR   Intensive IFR   Very Intensive IFR
Visi :
Ceiling :
>= 8 km
>= 3000ft
5 to 8 km
1000 to 3000 ft
1500m to 5 km
500 to 1000 ft
800 to 1500m
200 to 500 ft
< 800m
< 200 ft
Symbols :   Thunderstorms  Fog  Heavy snow  Heavy precipitations  Wind > 20 kt
SIGMETs :     Misc.  Thunderstorms  Icing  Turbulence  Mountain Waves  Volcanic Ashes







- Airport Elevation : 1273 ft
- IATA code : LJU


LJLJ - Ljubljana

CURRENT METAR :
  • 180730Z VRB02KT 9999 FEW060 22/17 Q1019 NOSIG

EXPIRED METARs :
  • 180700Z VRB01KT 9999 FEW060 20/17 Q1019 NOSIG
  • 180630Z 30002KT 9999 FEW060 19/16 Q1019 NOSIG
  • 180600Z VRB01KT 9999 FEW060 18/16 Q1019 NOSIG
  • 180530Z VRB01KT 9999 FEW060 16/16 Q1019 NOSIG
  • 180500Z 30002KT 9999 FEW060 15/15 Q1019 NOSIG

TAF TAF LJLJ
Valid from the 18 at 06:00 until the 19 at 06:00 UTC


180500Z 1806/1906 30003KT CAVOK
BECMG 1808/1809 12005KT FEW060
TEMPO 1811/1817 FEW060TCU
BECMG 1819/1821 30003KT CAVOK
No reported NOTAMs for that airfield.



MET'MAP, your aeronautical weather chart ! - Copyright ORBIFLY December 2007 - Disclaimer

ORBIFLY MET'MAP TEAM :

Programming & Development : Alexandra Zaïnal
Concept & Development : Baudouin d'Aumeries
Co-Development & Prog : Marc-Olivier Méhu
Technical & hardware support : Manuel Goepfert

Contact : metmap@orbifly.com




SOURCES & CREDITS :

   NOAA